sensor_id;sensor_type;location;lat;lon;timestamp;temperature;humidity
14585;DHT22;7379;51.506;11.876;2022-07-15T00:00:08;20.90;45.10
14585;DHT22;7379;51.506;11.876;2022-07-15T00:02:36;20.90;45.20
14585;DHT22;7379;51.506;11.876;2022-07-15T00:05:03;20.90;45.20
14585;DHT22;7379;51.506;11.876;2022-07-15T00:07:31;20.80;45.20
14585;DHT22;7379;51.506;11.876;2022-07-15T00:09:57;20.80;45.20
14585;DHT22;7379;51.506;11.876;2022-07-15T00:12:47;20.80;45.20
14585;DHT22;7379;51.506;11.876;2022-07-15T00:15:14;20.80;45.30
14585;DHT22;7379;51.506;11.876;2022-07-15T00:17:41;20.80;45.40
14585;DHT22;7379;51.506;11.876;2022-07-15T00:20:10;20.70;45.30
14585;DHT22;7379;51.506;11.876;2022-07-15T00:22:37;20.70;45.40
14585;DHT22;7379;51.506;11.876;2022-07-15T00:25:04;20.70;45.40
14585;DHT22;7379;51.506;11.876;2022-07-15T00:27:31;20.70;45.40
14585;DHT22;7379;51.506;11.876;2022-07-15T00:30:00;20.60;45.40
14585;DHT22;7379;51.506;11.876;2022-07-15T00:32:27;20.60;45.40
14585;DHT22;7379;51.506;11.876;2022-07-15T00:34:53;20.60;45.50
14585;DHT22;7379;51.506;11.876;2022-07-15T00:37:20;20.60;45.50
14585;DHT22;7379;51.506;11.876;2022-07-15T00:39:47;20.60;45.50
14585;DHT22;7379;51.506;11.876;2022-07-15T00:42:14;20.60;45.50
14585;DHT22;7379;51.506;11.876;2022-07-15T00:45:03;20.50;45.50
14585;DHT22;7379;51.506;11.876;2022-07-15T00:47:30;20.50;45.60
14585;DHT22;7379;51.506;11.876;2022-07-15T00:49:57;20.50;45.70
14585;DHT22;7379;51.506;11.876;2022-07-15T00:52:25;20.40;45.60
14585;DHT22;7379;51.506;11.876;2022-07-15T00:54:54;20.40;45.70
14585;DHT22;7379;51.506;11.876;2022-07-15T00:57:23;20.40;45.70
14585;DHT22;7379;51.506;11.876;2022-07-15T00:59:52;20.40;45.80
14585;DHT22;7379;51.506;11.876;2022-07-15T01:02:21;20.40;45.80
14585;DHT22;7379;51.506;11.876;2022-07-15T01:04:48;20.30;45.80
14585;DHT22;7379;51.506;11.876;2022-07-15T01:07:15;20.30;45.80
14585;DHT22;7379;51.506;11.876;2022-07-15T01:09:42;20.30;45.80
14585;DHT22;7379;51.506;11.876;2022-07-15T01:12:09;20.30;45.90
14585;DHT22;7379;51.506;11.876;2022-07-15T01:14:36;20.30;46.00
14585;DHT22;7379;51.506;11.876;2022-07-15T01:17:08;20.20;46.00
14585;DHT22;7379;51.506;11.876;2022-07-15T01:19:36;20.20;46.00
14585;DHT22;7379;51.506;11.876;2022-07-15T01:22:05;20.20;46.10
14585;DHT22;7379;51.506;11.876;2022-07-15T01:24:32;20.20;46.20
14585;DHT22;7379;51.506;11.876;2022-07-15T01:26:59;20.10;46.20
14585;DHT22;7379;51.506;11.876;2022-07-15T01:29:26;20.10;46.20
14585;DHT22;7379;51.506;11.876;2022-07-15T01:31:53;20.10;46.30
14585;DHT22;7379;51.506;11.876;2022-07-15T01:34:20;20.10;46.40
14585;DHT22;7379;51.506;11.876;2022-07-15T01:36:47;20.10;46.40
14585;DHT22;7379;51.506;11.876;2022-07-15T01:39:15;20.00;46.40
14585;DHT22;7379;51.506;11.876;2022-07-15T01:41:42;20.00;46.50
14585;DHT22;7379;51.506;11.876;2022-07-15T01:44:09;20.00;46.60
14585;DHT22;7379;51.506;11.876;2022-07-15T01:46:37;20.00;46.60
14585;DHT22;7379;51.506;11.876;2022-07-15T01:49:04;20.00;46.60
14585;DHT22;7379;51.506;11.876;2022-07-15T01:51:52;20.00;46.70
14585;DHT22;7379;51.506;11.876;2022-07-15T01:54:21;19.90;46.70
14585;DHT22;7379;51.506;11.876;2022-07-15T01:56:48;19.90;46.80
14585;DHT22;7379;51.506;11.876;2022-07-15T01:59:15;19.90;46.90
14585;DHT22;7379;51.506;11.876;2022-07-15T02:01:43;19.90;47.00
14585;DHT22;7379;51.506;11.876;2022-07-15T02:04:10;19.80;47.00
14585;DHT22;7379;51.506;11.876;2022-07-15T02:06:38;19.80;47.10
14585;DHT22;7379;51.506;11.876;2022-07-15T02:09:05;19.80;47.20
14585;DHT22;7379;51.506;11.876;2022-07-15T02:11:34;19.80;47.20
14585;DHT22;7379;51.506;11.876;2022-07-15T02:14:01;19.80;47.40
14585;DHT22;7379;51.506;11.876;2022-07-15T02:16:28;19.70;47.40
14585;DHT22;7379;51.506;11.876;2022-07-15T02:18:55;19.70;47.40
14585;DHT22;7379;51.506;11.876;2022-07-15T02:21:22;19.70;47.50
14585;DHT22;7379;51.506;11.876;2022-07-15T02:23:49;19.70;47.60
14585;DHT22;7379;51.506;11.876;2022-07-15T02:26:16;19.60;47.60
14585;DHT22;7379;51.506;11.876;2022-07-15T02:28:44;19.60;47.70
14585;DHT22;7379;51.506;11.876;2022-07-15T02:31:11;19.60;47.70
14585;DHT22;7379;51.506;11.876;2022-07-15T02:33:38;19.60;47.90
14585;DHT22;7379;51.506;11.876;2022-07-15T02:36:06;19.60;48.60
14585;DHT22;7379;51.506;11.876;2022-07-15T02:38:32;19.60;48.10
14585;DHT22;7379;51.506;11.876;2022-07-15T02:40:59;19.50;48.00
14585;DHT22;7379;51.506;11.876;2022-07-15T02:43:26;19.50;48.10
14585;DHT22;7379;51.506;11.876;2022-07-15T02:45:54;19.50;48.20
14585;DHT22;7379;51.506;11.876;2022-07-15T02:48:21;19.50;48.20
14585;DHT22;7379;51.506;11.876;2022-07-15T02:50:49;19.50;48.30
14585;DHT22;7379;51.506;11.876;2022-07-15T02:53:16;19.40;48.30
14585;DHT22;7379;51.506;11.876;2022-07-15T02:55:43;19.40;48.30
14585;DHT22;7379;51.506;11.876;2022-07-15T02:58:10;19.40;48.40
14585;DHT22;7379;51.506;11.876;2022-07-15T03:00:37;19.40;48.50
14585;DHT22;7379;51.506;11.876;2022-07-15T03:03:05;19.40;48.60
14585;DHT22;7379;51.506;11.876;2022-07-15T03:05:32;19.40;48.60
14585;DHT22;7379;51.506;11.876;2022-07-15T03:07:59;19.40;48.70
14585;DHT22;7379;51.506;11.876;2022-07-15T03:10:26;19.40;48.70
14585;DHT22;7379;51.506;11.876;2022-07-15T03:12:52;19.30;48.70
14585;DHT22;7379;51.506;11.876;2022-07-15T03:15:19;19.30;48.70
14585;DHT22;7379;51.506;11.876;2022-07-15T03:17:46;19.30;48.80
14585;DHT22;7379;51.506;11.876;2022-07-15T03:20:14;19.30;48.80
14585;DHT22;7379;51.506;11.876;2022-07-15T03:22:41;19.20;48.80
14585;DHT22;7379;51.506;11.876;2022-07-15T03:25:08;19.20;48.90
14585;DHT22;7379;51.506;11.876;2022-07-15T03:27:35;19.20;48.90
14585;DHT22;7379;51.506;11.876;2022-07-15T03:30:03;19.20;49.00
14585;DHT22;7379;51.506;11.876;2022-07-15T03:32:30;19.20;49.00
14585;DHT22;7379;51.506;11.876;2022-07-15T03:34:56;19.20;49.00
14585;DHT22;7379;51.506;11.876;2022-07-15T03:37:25;19.20;49.10
14585;DHT22;7379;51.506;11.876;2022-07-15T03:39:51;19.10;49.10
14585;DHT22;7379;51.506;11.876;2022-07-15T03:42:18;19.10;49.20
14585;DHT22;7379;51.506;11.876;2022-07-15T03:44:45;19.10;49.20
14585;DHT22;7379;51.506;11.876;2022-07-15T03:47:12;19.10;49.30
14585;DHT22;7379;51.506;11.876;2022-07-15T03:49:39;19.10;49.30
14585;DHT22;7379;51.506;11.876;2022-07-15T03:52:05;19.00;49.30
14585;DHT22;7379;51.506;11.876;2022-07-15T03:54:33;19.00;49.40
14585;DHT22;7379;51.506;11.876;2022-07-15T03:57:00;19.00;49.50
14585;DHT22;7379;51.506;11.876;2022-07-15T03:59:27;19.00;49.40
14585;DHT22;7379;51.506;11.876;2022-07-15T04:01:54;19.00;49.60
14585;DHT22;7379;51.506;11.876;2022-07-15T04:04:21;19.00;49.60
14585;DHT22;7379;51.506;11.876;2022-07-15T04:06:48;19.00;49.80
14585;DHT22;7379;51.506;11.876;2022-07-15T04:09:14;18.90;49.80
14585;DHT22;7379;51.506;11.876;2022-07-15T04:11:42;18.90;49.90
14585;DHT22;7379;51.506;11.876;2022-07-15T04:14:10;18.90;50.00
14585;DHT22;7379;51.506;11.876;2022-07-15T04:16:38;18.90;50.00
14585;DHT22;7379;51.506;11.876;2022-07-15T04:19:05;18.90;50.10
14585;DHT22;7379;51.506;11.876;2022-07-15T04:21:31;18.90;50.30
14585;DHT22;7379;51.506;11.876;2022-07-15T04:23:58;18.80;50.20
14585;DHT22;7379;51.506;11.876;2022-07-15T04:26:25;18.80;50.30
14585;DHT22;7379;51.506;11.876;2022-07-15T04:28:54;18.80;50.40
14585;DHT22;7379;51.506;11.876;2022-07-15T04:31:21;18.80;50.50
14585;DHT22;7379;51.506;11.876;2022-07-15T04:33:48;18.80;50.50
14585;DHT22;7379;51.506;11.876;2022-07-15T04:36:15;18.80;50.60
14585;DHT22;7379;51.506;11.876;2022-07-15T04:38:42;18.80;50.70
14585;DHT22;7379;51.506;11.876;2022-07-15T04:41:09;18.80;50.70
14585;DHT22;7379;51.506;11.876;2022-07-15T04:43:35;18.80;50.90
14585;DHT22;7379;51.506;11.876;2022-07-15T04:46:04;18.80;50.90
14585;DHT22;7379;51.506;11.876;2022-07-15T04:48:31;18.70;50.90
14585;DHT22;7379;51.506;11.876;2022-07-15T04:51:15;18.70;51.00
14585;DHT22;7379;51.506;11.876;2022-07-15T04:53:42;18.70;51.00
14585;DHT22;7379;51.506;11.876;2022-07-15T04:56:09;18.70;51.10
14585;DHT22;7379;51.506;11.876;2022-07-15T04:58:36;18.70;51.10
14585;DHT22;7379;51.506;11.876;2022-07-15T05:01:04;18.70;51.20
14585;DHT22;7379;51.506;11.876;2022-07-15T05:03:32;18.70;51.40
14585;DHT22;7379;51.506;11.876;2022-07-15T05:05:59;18.70;51.50
14585;DHT22;7379;51.506;11.876;2022-07-15T05:08:27;18.70;51.50
14585;DHT22;7379;51.506;11.876;2022-07-15T05:10:55;18.60;51.40
14585;DHT22;7379;51.506;11.876;2022-07-15T05:13:22;18.60;51.50
14585;DHT22;7379;51.506;11.876;2022-07-15T05:15:48;18.60;51.60
14585;DHT22;7379;51.506;11.876;2022-07-15T05:18:16;18.60;51.70
14585;DHT22;7379;51.506;11.876;2022-07-15T05:20:43;18.70;51.80
14585;DHT22;7379;51.506;11.876;2022-07-15T05:23:10;18.60;51.70
14585;DHT22;7379;51.506;11.876;2022-07-15T05:25:37;18.60;51.70
14585;DHT22;7379;51.506;11.876;2022-07-15T05:28:04;18.60;51.90
14585;DHT22;7379;51.506;11.876;2022-07-15T05:30:30;18.60;51.80
14585;DHT22;7379;51.506;11.876;2022-07-15T05:32:57;18.60;51.90
14585;DHT22;7379;51.506;11.876;2022-07-15T05:35:25;18.60;51.90
14585;DHT22;7379;51.506;11.876;2022-07-15T05:37:52;18.60;51.90
14585;DHT22;7379;51.506;11.876;2022-07-15T05:40:19;18.60;51.90
14585;DHT22;7379;51.506;11.876;2022-07-15T05:42:46;18.60;51.90
14585;DHT22;7379;51.506;11.876;2022-07-15T05:45:13;18.60;51.90
14585;DHT22;7379;51.506;11.876;2022-07-15T05:47:46;18.60;52.00
14585;DHT22;7379;51.506;11.876;2022-07-15T05:50:13;18.60;52.10
14585;DHT22;7379;51.506;11.876;2022-07-15T05:52:41;18.60;52.10
14585;DHT22;7379;51.506;11.876;2022-07-15T05:55:09;18.60;52.10
14585;DHT22;7379;51.506;11.876;2022-07-15T05:57:35;18.60;52.10
14585;DHT22;7379;51.506;11.876;2022-07-15T06:00:03;18.50;52.00
14585;DHT22;7379;51.506;11.876;2022-07-15T06:02:31;18.50;52.00
14585;DHT22;7379;51.506;11.876;2022-07-15T06:04:58;18.50;52.10
14585;DHT22;7379;51.506;11.876;2022-07-15T06:07:24;18.50;52.10
14585;DHT22;7379;51.506;11.876;2022-07-15T06:09:53;18.50;52.10
14585;DHT22;7379;51.506;11.876;2022-07-15T06:12:20;18.50;52.10
14585;DHT22;7379;51.506;11.876;2022-07-15T06:14:46;18.50;52.10
14585;DHT22;7379;51.506;11.876;2022-07-15T06:17:13;18.50;52.10
14585;DHT22;7379;51.506;11.876;2022-07-15T06:19:40;18.50;52.10
14585;DHT22;7379;51.506;11.876;2022-07-15T06:22:07;18.50;52.10
14585;DHT22;7379;51.506;11.876;2022-07-15T06:24:33;18.50;52.10
14585;DHT22;7379;51.506;11.876;2022-07-15T06:27:02;18.50;52.20
14585;DHT22;7379;51.506;11.876;2022-07-15T06:29:28;18.50;52.20
14585;DHT22;7379;51.506;11.876;2022-07-15T06:31:57;18.50;52.10
14585;DHT22;7379;51.506;11.876;2022-07-15T06:34:24;18.50;52.10
14585;DHT22;7379;51.506;11.876;2022-07-15T06:36:51;18.50;52.20
14585;DHT22;7379;51.506;11.876;2022-07-15T06:39:18;18.50;52.10
14585;DHT22;7379;51.506;11.876;2022-07-15T06:41:45;18.50;52.10
14585;DHT22;7379;51.506;11.876;2022-07-15T06:44:13;18.50;51.90
14585;DHT22;7379;51.506;11.876;2022-07-15T06:46:40;18.50;51.90
14585;DHT22;7379;51.506;11.876;2022-07-15T06:49:07;18.50;51.80
14585;DHT22;7379;51.506;11.876;2022-07-15T06:51:34;18.50;51.60
14585;DHT22;7379;51.506;11.876;2022-07-15T06:54:00;18.60;51.70
14585;DHT22;7379;51.506;11.876;2022-07-15T06:56:27;18.50;51.40
14585;DHT22;7379;51.506;11.876;2022-07-15T06:58:55;18.60;51.30
14585;DHT22;7379;51.506;11.876;2022-07-15T07:01:23;18.60;51.20
14585;DHT22;7379;51.506;11.876;2022-07-15T07:03:50;18.50;51.10
14585;DHT22;7379;51.506;11.876;2022-07-15T07:06:17;18.60;51.00
14585;DHT22;7379;51.506;11.876;2022-07-15T07:08:43;18.60;50.90
14585;DHT22;7379;51.506;11.876;2022-07-15T07:11:12;18.60;50.80
14585;DHT22;7379;51.506;11.876;2022-07-15T07:13:39;18.60;50.80
14585;DHT22;7379;51.506;11.876;2022-07-15T07:16:06;18.60;50.50
14585;DHT22;7379;51.506;11.876;2022-07-15T07:18:34;18.60;50.60
14585;DHT22;7379;51.506;11.876;2022-07-15T07:21:01;18.60;50.40
14585;DHT22;7379;51.506;11.876;2022-07-15T07:23:28;18.60;50.40
14585;DHT22;7379;51.506;11.876;2022-07-15T07:25:56;18.60;50.30
14585;DHT22;7379;51.506;11.876;2022-07-15T07:28:24;18.60;50.10
14585;DHT22;7379;51.506;11.876;2022-07-15T07:30:51;18.60;50.00
14585;DHT22;7379;51.506;11.876;2022-07-15T07:33:20;18.60;50.00
14585;DHT22;7379;51.506;11.876;2022-07-15T07:35:48;18.60;49.90
14585;DHT22;7379;51.506;11.876;2022-07-15T07:38:15;18.60;49.80
14585;DHT22;7379;51.506;11.876;2022-07-15T07:40:42;18.60;49.70
14585;DHT22;7379;51.506;11.876;2022-07-15T07:43:09;18.60;49.70
14585;DHT22;7379;51.506;11.876;2022-07-15T07:45:36;18.60;49.70
14585;DHT22;7379;51.506;11.876;2022-07-15T07:48:03;18.60;49.50
14585;DHT22;7379;51.506;11.876;2022-07-15T07:50:30;18.60;49.50
14585;DHT22;7379;51.506;11.876;2022-07-15T07:52:59;18.60;49.30
14585;DHT22;7379;51.506;11.876;2022-07-15T07:55:25;18.60;49.20
14585;DHT22;7379;51.506;11.876;2022-07-15T07:57:54;18.60;49.10
14585;DHT22;7379;51.506;11.876;2022-07-15T08:00:22;18.60;49.10
14585;DHT22;7379;51.506;11.876;2022-07-15T08:02:50;18.60;49.00
14585;DHT22;7379;51.506;11.876;2022-07-15T08:05:16;18.60;49.00
14585;DHT22;7379;51.506;11.876;2022-07-15T08:07:43;18.60;49.10
14585;DHT22;7379;51.506;11.876;2022-07-15T08:10:12;18.60;48.90
14585;DHT22;7379;51.506;11.876;2022-07-15T08:12:39;18.60;48.70
14585;DHT22;7379;51.506;11.876;2022-07-15T08:15:10;18.60;48.00
14585;DHT22;7379;51.506;11.876;2022-07-15T08:17:37;18.70;47.80
14585;DHT22;7379;51.506;11.876;2022-07-15T08:20:05;18.70;47.90
14585;DHT22;7379;51.506;11.876;2022-07-15T08:22:33;18.70;48.00
14585;DHT22;7379;51.506;11.876;2022-07-15T08:25:00;18.70;48.10
14585;DHT22;7379;51.506;11.876;2022-07-15T08:27:28;18.70;48.00
14585;DHT22;7379;51.506;11.876;2022-07-15T08:29:55;18.70;47.30
14585;DHT22;7379;51.506;11.876;2022-07-15T08:32:22;18.70;47.60
14585;DHT22;7379;51.506;11.876;2022-07-15T08:34:50;18.70;47.50
14585;DHT22;7379;51.506;11.876;2022-07-15T08:37:16;18.70;47.40
14585;DHT22;7379;51.506;11.876;2022-07-15T08:39:43;18.70;47.40
14585;DHT22;7379;51.506;11.876;2022-07-15T08:42:10;18.70;47.40
14585;DHT22;7379;51.506;11.876;2022-07-15T08:44:38;18.70;47.10
14585;DHT22;7379;51.506;11.876;2022-07-15T08:47:06;18.70;47.10
14585;DHT22;7379;51.506;11.876;2022-07-15T08:49:33;18.80;47.20
14585;DHT22;7379;51.506;11.876;2022-07-15T08:52:05;18.80;47.10
14585;DHT22;7379;51.506;11.876;2022-07-15T08:54:32;18.80;47.10
14585;DHT22;7379;51.506;11.876;2022-07-15T08:56:59;18.80;47.10
14585;DHT22;7379;51.506;11.876;2022-07-15T08:59:26;18.80;47.00
14585;DHT22;7379;51.506;11.876;2022-07-15T09:01:54;18.80;46.60
14585;DHT22;7379;51.506;11.876;2022-07-15T09:04:21;18.80;45.90
14585;DHT22;7379;51.506;11.876;2022-07-15T09:06:49;18.80;45.70
14585;DHT22;7379;51.506;11.876;2022-07-15T09:09:30;18.80;46.10
14585;DHT22;7379;51.506;11.876;2022-07-15T09:12:03;18.80;46.40
14585;DHT22;7379;51.506;11.876;2022-07-15T09:14:32;18.80;46.50
14585;DHT22;7379;51.506;11.876;2022-07-15T09:17:21;18.80;46.00
14585;DHT22;7379;51.506;11.876;2022-07-15T09:20:00;18.80;46.10
14585;DHT22;7379;51.506;11.876;2022-07-15T09:22:30;18.90;46.00
14585;DHT22;7379;51.506;11.876;2022-07-15T09:25:04;18.90;46.30
14585;DHT22;7379;51.506;11.876;2022-07-15T09:27:33;18.90;46.20
14585;DHT22;7379;51.506;11.876;2022-07-15T09:30:14;18.90;46.40
14585;DHT22;7379;51.506;11.876;2022-07-15T09:33:01;18.90;45.80
14585;DHT22;7379;51.506;11.876;2022-07-15T09:35:46;18.90;45.40
14585;DHT22;7379;51.506;11.876;2022-07-15T09:38:36;18.90;45.70
14585;DHT22;7379;51.506;11.876;2022-07-15T09:41:06;19.00;45.20
14585;DHT22;7379;51.506;11.876;2022-07-15T09:43:43;19.00;45.10
14585;DHT22;7379;51.506;11.876;2022-07-15T09:46:10;19.00;44.80
14585;DHT22;7379;51.506;11.876;2022-07-15T09:48:41;19.00;44.60
14585;DHT22;7379;51.506;11.876;2022-07-15T09:51:09;19.00;44.90
14585;DHT22;7379;51.506;11.876;2022-07-15T09:53:36;19.00;44.90
14585;DHT22;7379;51.506;11.876;2022-07-15T09:56:05;19.10;45.20
14585;DHT22;7379;51.506;11.876;2022-07-15T09:58:33;19.10;45.10
14585;DHT22;7379;51.506;11.876;2022-07-15T10:01:02;19.10;45.20
14585;DHT22;7379;51.506;11.876;2022-07-15T10:03:30;19.10;45.10
14585;DHT22;7379;51.506;11.876;2022-07-15T10:06:00;19.10;44.90
14585;DHT22;7379;51.506;11.876;2022-07-15T10:08:28;19.10;45.10
14585;DHT22;7379;51.506;11.876;2022-07-15T10:10:56;19.10;45.00
14585;DHT22;7379;51.506;11.876;2022-07-15T10:17:10;19.20;45.20
14585;DHT22;7379;51.506;11.876;2022-07-15T10:20:02;19.10;44.90
14585;DHT22;7379;51.506;11.876;2022-07-15T10:22:39;19.20;44.80
14585;DHT22;7379;51.506;11.876;2022-07-15T10:25:16;19.20;44.60
14585;DHT22;7379;51.506;11.876;2022-07-15T10:27:52;19.20;44.80
14585;DHT22;7379;51.506;11.876;2022-07-15T10:30:22;19.20;44.80
14585;DHT22;7379;51.506;11.876;2022-07-15T10:33:14;19.20;44.60
14585;DHT22;7379;51.506;11.876;2022-07-15T10:35:48;19.20;44.60
14585;DHT22;7379;51.506;11.876;2022-07-15T10:38:29;19.20;44.00
14585;DHT22;7379;51.506;11.876;2022-07-15T10:41:00;19.20;44.00
14585;DHT22;7379;51.506;11.876;2022-07-15T10:43:41;19.30;43.90
14585;DHT22;7379;51.506;11.876;2022-07-15T10:46:32;19.40;43.80
14585;DHT22;7379;51.506;11.876;2022-07-15T10:49:27;19.40;43.70
14585;DHT22;7379;51.506;11.876;2022-07-15T10:51:54;19.40;43.50
14585;DHT22;7379;51.506;11.876;2022-07-15T10:54:42;19.40;43.90
14585;DHT22;7379;51.506;11.876;2022-07-15T10:57:10;19.40;43.90
14585;DHT22;7379;51.506;11.876;2022-07-15T10:59:46;19.40;43.70
14585;DHT22;7379;51.506;11.876;2022-07-15T11:02:16;19.40;43.60
14585;DHT22;7379;51.506;11.876;2022-07-15T11:04:44;19.30;43.60
14585;DHT22;7379;51.506;11.876;2022-07-15T11:07:24;19.40;43.70
14585;DHT22;7379;51.506;11.876;2022-07-15T11:09:54;19.40;43.90
14585;DHT22;7379;51.506;11.876;2022-07-15T11:12:23;19.40;43.80
14585;DHT22;7379;51.506;11.876;2022-07-15T11:14:53;19.40;43.60
14585;DHT22;7379;51.506;11.876;2022-07-15T11:17:23;19.40;44.20
14585;DHT22;7379;51.506;11.876;2022-07-15T11:19:53;19.40;43.40
14585;DHT22;7379;51.506;11.876;2022-07-15T11:22:22;19.50;43.70
14585;DHT22;7379;51.506;11.876;2022-07-15T11:24:49;19.50;43.80
14585;DHT22;7379;51.506;11.876;2022-07-15T11:27:19;19.50;43.70
14585;DHT22;7379;51.506;11.876;2022-07-15T11:29:49;19.60;43.70
14585;DHT22;7379;51.506;11.876;2022-07-15T11:32:18;19.60;43.30
14585;DHT22;7379;51.506;11.876;2022-07-15T11:34:47;19.60;43.40
14585;DHT22;7379;51.506;11.876;2022-07-15T11:37:14;19.70;43.60
14585;DHT22;7379;51.506;11.876;2022-07-15T11:39:46;19.70;43.10
14585;DHT22;7379;51.506;11.876;2022-07-15T11:42:22;19.70;43.10
14585;DHT22;7379;51.506;11.876;2022-07-15T11:45:07;19.70;43.10
14585;DHT22;7379;51.506;11.876;2022-07-15T11:47:50;19.70;43.20
14585;DHT22;7379;51.506;11.876;2022-07-15T11:50:17;19.70;42.90
14585;DHT22;7379;51.506;11.876;2022-07-15T11:52:45;19.70;42.90
14585;DHT22;7379;51.506;11.876;2022-07-15T11:55:11;19.70;42.90
14585;DHT22;7379;51.506;11.876;2022-07-15T11:57:45;19.70;42.90
14585;DHT22;7379;51.506;11.876;2022-07-15T12:00:13;19.70;42.70
14585;DHT22;7379;51.506;11.876;2022-07-15T12:02:40;19.70;43.00
14585;DHT22;7379;51.506;11.876;2022-07-15T12:05:08;19.70;43.10
14585;DHT22;7379;51.506;11.876;2022-07-15T12:07:40;19.70;43.20
14585;DHT22;7379;51.506;11.876;2022-07-15T12:10:08;19.70;43.20
14585;DHT22;7379;51.506;11.876;2022-07-15T12:12:41;19.70;43.10
14585;DHT22;7379;51.506;11.876;2022-07-15T12:15:10;19.70;43.30
14585;DHT22;7379;51.506;11.876;2022-07-15T12:17:39;19.80;43.20
14585;DHT22;7379;51.506;11.876;2022-07-15T12:20:07;19.80;42.90
14585;DHT22;7379;51.506;11.876;2022-07-15T12:22:34;19.90;42.90
14585;DHT22;7379;51.506;11.876;2022-07-15T12:25:01;19.90;42.50
14585;DHT22;7379;51.506;11.876;2022-07-15T12:27:34;19.90;42.70
14585;DHT22;7379;51.506;11.876;2022-07-15T12:30:06;19.90;42.30
14585;DHT22;7379;51.506;11.876;2022-07-15T12:32:34;20.00;42.30
14585;DHT22;7379;51.506;11.876;2022-07-15T12:35:03;20.00;42.60
14585;DHT22;7379;51.506;11.876;2022-07-15T12:37:46;20.30;42.40
14585;DHT22;7379;51.506;11.876;2022-07-15T12:40:17;20.40;42.10
14585;DHT22;7379;51.506;11.876;2022-07-15T12:42:47;20.40;42.10
14585;DHT22;7379;51.506;11.876;2022-07-15T12:45:17;20.60;41.50
14585;DHT22;7379;51.506;11.876;2022-07-15T12:48:02;20.60;41.00
14585;DHT22;7379;51.506;11.876;2022-07-15T12:50:29;20.70;40.80
14585;DHT22;7379;51.506;11.876;2022-07-15T12:52:57;20.70;41.00
14585;DHT22;7379;51.506;11.876;2022-07-15T12:55:26;20.60;41.20
14585;DHT22;7379;51.506;11.876;2022-07-15T12:58:03;20.50;41.20
14585;DHT22;7379;51.506;11.876;2022-07-15T13:00:32;20.50;41.40
14585;DHT22;7379;51.506;11.876;2022-07-15T13:03:05;20.50;41.20
14585;DHT22;7379;51.506;11.876;2022-07-15T13:05:34;20.50;41.20
14585;DHT22;7379;51.506;11.876;2022-07-15T13:08:03;20.50;41.20
14585;DHT22;7379;51.506;11.876;2022-07-15T13:10:30;20.50;41.50
14585;DHT22;7379;51.506;11.876;2022-07-15T13:12:57;20.50;41.60
14585;DHT22;7379;51.506;11.876;2022-07-15T13:15:24;20.70;41.60
14585;DHT22;7379;51.506;11.876;2022-07-15T13:17:52;20.80;41.00
14585;DHT22;7379;51.506;11.876;2022-07-15T13:20:20;20.90;40.50
14585;DHT22;7379;51.506;11.876;2022-07-15T13:22:46;20.90;40.40
14585;DHT22;7379;51.506;11.876;2022-07-15T13:25:13;21.00;40.60
14585;DHT22;7379;51.506;11.876;2022-07-15T13:27:40;21.00;40.40
14585;DHT22;7379;51.506;11.876;2022-07-15T13:30:08;21.00;40.50
14585;DHT22;7379;51.506;11.876;2022-07-15T13:32:35;21.00;40.70
14585;DHT22;7379;51.506;11.876;2022-07-15T13:35:04;20.90;40.90
14585;DHT22;7379;51.506;11.876;2022-07-15T13:37:32;20.80;41.10
14585;DHT22;7379;51.506;11.876;2022-07-15T13:39:59;20.80;40.70
14585;DHT22;7379;51.506;11.876;2022-07-15T13:42:26;20.80;40.50
14585;DHT22;7379;51.506;11.876;2022-07-15T13:44:54;20.80;40.20
14585;DHT22;7379;51.506;11.876;2022-07-15T13:47:22;20.80;40.40
14585;DHT22;7379;51.506;11.876;2022-07-15T13:49:49;20.90;40.10
14585;DHT22;7379;51.506;11.876;2022-07-15T13:52:41;21.10;40.10
14585;DHT22;7379;51.506;11.876;2022-07-15T13:55:08;21.10;39.90
14585;DHT22;7379;51.506;11.876;2022-07-15T13:57:35;21.00;39.80
14585;DHT22;7379;51.506;11.876;2022-07-15T14:00:03;21.00;39.80
14585;DHT22;7379;51.506;11.876;2022-07-15T14:02:30;20.90;40.10
14585;DHT22;7379;51.506;11.876;2022-07-15T14:04:57;20.80;40.00
14585;DHT22;7379;51.506;11.876;2022-07-15T14:07:24;20.80;40.20
14585;DHT22;7379;51.506;11.876;2022-07-15T14:10:07;20.70;40.20
14585;DHT22;7379;51.506;11.876;2022-07-15T14:12:34;20.70;40.40
14585;DHT22;7379;51.506;11.876;2022-07-15T14:15:01;20.60;40.30
14585;DHT22;7379;51.506;11.876;2022-07-15T14:17:28;20.60;40.30
14585;DHT22;7379;51.506;11.876;2022-07-15T14:19:55;20.60;40.40
14585;DHT22;7379;51.506;11.876;2022-07-15T14:22:30;20.50;40.60
14585;DHT22;7379;51.506;11.876;2022-07-15T14:24:57;20.60;40.60
14585;DHT22;7379;51.506;11.876;2022-07-15T14:27:26;20.60;40.40
14585;DHT22;7379;51.506;11.876;2022-07-15T14:29:52;20.60;40.40
14585;DHT22;7379;51.506;11.876;2022-07-15T14:32:19;20.60;40.30
14585;DHT22;7379;51.506;11.876;2022-07-15T14:34:46;20.60;40.40
14585;DHT22;7379;51.506;11.876;2022-07-15T14:37:13;20.60;40.20
14585;DHT22;7379;51.506;11.876;2022-07-15T14:39:40;20.70;40.60
14585;DHT22;7379;51.506;11.876;2022-07-15T14:42:06;20.70;40.40
14585;DHT22;7379;51.506;11.876;2022-07-15T14:44:35;20.60;40.10
14585;DHT22;7379;51.506;11.876;2022-07-15T14:47:02;20.60;40.10
14585;DHT22;7379;51.506;11.876;2022-07-15T14:49:29;20.60;39.90
14585;DHT22;7379;51.506;11.876;2022-07-15T14:51:56;20.60;39.90
14585;DHT22;7379;51.506;11.876;2022-07-15T14:54:22;20.60;39.90
14585;DHT22;7379;51.506;11.876;2022-07-15T14:56:49;20.60;40.10
14585;DHT22;7379;51.506;11.876;2022-07-15T14:59:16;20.60;40.10
14585;DHT22;7379;51.506;11.876;2022-07-15T15:01:44;20.60;40.30
14585;DHT22;7379;51.506;11.876;2022-07-15T15:04:11;20.50;40.00
14585;DHT22;7379;51.506;11.876;2022-07-15T15:06:38;20.50;39.80
14585;DHT22;7379;51.506;11.876;2022-07-15T15:09:04;20.70;39.90
14585;DHT22;7379;51.506;11.876;2022-07-15T15:11:31;20.80;39.70
14585;DHT22;7379;51.506;11.876;2022-07-15T15:13:58;21.00;39.00
14585;DHT22;7379;51.506;11.876;2022-07-15T15:16:27;21.00;39.00
14585;DHT22;7379;51.506;11.876;2022-07-15T15:18:55;21.00;39.00
14585;DHT22;7379;51.506;11.876;2022-07-15T15:21:22;20.90;38.80
14585;DHT22;7379;51.506;11.876;2022-07-15T15:23:48;20.90;39.00
14585;DHT22;7379;51.506;11.876;2022-07-15T15:26:15;20.80;39.60
14585;DHT22;7379;51.506;11.876;2022-07-15T15:28:49;20.80;39.90
14585;DHT22;7379;51.506;11.876;2022-07-15T15:31:16;20.80;39.50
14585;DHT22;7379;51.506;11.876;2022-07-15T15:33:43;20.70;39.20
14585;DHT22;7379;51.506;11.876;2022-07-15T15:36:12;20.70;38.80
14585;DHT22;7379;51.506;11.876;2022-07-15T15:38:39;20.80;39.00
14585;DHT22;7379;51.506;11.876;2022-07-15T15:41:06;20.90;39.00
14585;DHT22;7379;51.506;11.876;2022-07-15T15:43:33;21.20;38.10